Helenville, WI (53137)

9:52 PM CST on November 23, 2014 (GMT -0600)
WIDOT Johnson Creek - I-94 @ CTH Y | Change Station
CLOSE
Current Station
Personal Weather Station
Location: Johnson Creek, WI
Elevation: 835 ft
Nearby Weather Stations
Active Advisory: Winter Weather Advisory

Elev 835 ft 43.09 °N, 88.78 °W | Updated 52 minutes ago

Rain
Rain
46 °F
Feels Like 46 °F
N
2
Wind Variable Wind from North
Gusts 4.0 mph

Today
High -- | Low -- °F
--% Chance of Precip.
Yesterday
High -- | Low -- °F
Precip. -- in
6:57 AM 4:24 PM
Waxing Crescent, 3% visible
Pressure 29.20 in
Visibility 4.0 miles
Clouds Scattered Clouds 300 ft
Mostly Cloudy 1700 ft
Overcast 3000 ft
Windchill 46 °F
Dew Point 44 °F
Humidity 92%
Rainfall -999.00 in
Snow Depth Not available.
UV 0 out of 12
Pollen .10 out of 12
Air Quality Not available.
Flu Activity Not available.
METAR KRYV 240335Z AUTO 09004KT 4SM -RA SCT003 BKN017 OVC030 08/08 A2920 RMK AO2 T00750075

More Conditions Fewer Conditions

Pressure 29.20 in
Visibility 4.0 miles
Clouds Scattered Clouds 300 ft
Mostly Cloudy 1700 ft
Overcast 3000 ft
Windchill 46 °F
Dew Point 44 °F
Humidity 92%
Rainfall -999.00 in
Snow Depth Not available.
UV 0 out of 12
Pollen .10 out of 12
Air Quality Not available.
Flu Activity Not available.
METAR KRYV 240335Z AUTO 09004KT 4SM -RA SCT003 BKN017 OVC030 08/08 A2920 RMK AO2 T00750075

More Conditions Fewer Conditions

10-Day Weather Forecast

Almanac

Astronomy

Nov. 23, 2014 Rise Set
Actual Time
Civil Twilight
Nautical Twilight
Astronomical Twilight
Moon
Length of Visible Light
Length of Day
Tomorrow will be .
, % of the Moon is Illuminated

Today's Extremes

State Highs State Lows

Community

WunderPhotos

Upload Photos

1,773,262 photos uploaded!

WunderBlogs® & News

Nearby

Air Quality

  Air Quality AQ Index Pollutant
Not available.

Snow Depth

Station Depth Elevation

Earthquake Activity

City Distance Mag. Time & Date
Minimum magnitude displayed is 2.5.

Coastal Water Temperatures

Place Temperature

Nearby Weather Stations